createdAt,value
2022-11-13T00:01:00.218Z,5.37
2022-11-13T00:02:01.951Z,5.36
2022-11-13T00:03:03.696Z,5.36
2022-11-13T00:04:05.428Z,5.35
2022-11-13T00:05:07.178Z,5.35
2022-11-13T00:06:08.897Z,5.34
2022-11-13T00:07:10.720Z,5.33
2022-11-13T00:08:12.357Z,5.33
2022-11-13T00:09:14.114Z,5.32
2022-11-13T00:10:15.852Z,5.31
2022-11-13T00:11:17.608Z,5.31
2022-11-13T00:12:19.276Z,5.31
2022-11-13T00:13:23.935Z,5.3
2022-11-13T00:14:22.807Z,5.3
2022-11-13T00:15:24.503Z,5.3
2022-11-13T00:16:26.230Z,5.3
2022-11-13T00:17:27.986Z,5.3
2022-11-13T00:18:29.979Z,5.29
2022-11-13T00:19:31.440Z,5.3
2022-11-13T00:20:33.173Z,5.28
2022-11-13T00:21:34.893Z,5.28
2022-11-13T00:22:36.630Z,5.29
2022-11-13T00:23:38.368Z,5.27
2022-11-13T00:24:40.105Z,5.27
2022-11-13T00:25:41.829Z,5.26
2022-11-13T00:26:43.563Z,5.25
2022-11-13T00:27:45.312Z,5.24
2022-11-13T00:28:47.021Z,5.24
2022-11-13T00:29:48.778Z,5.23
2022-11-13T00:30:50.490Z,5.22
2022-11-13T00:31:52.238Z,5.22
2022-11-13T00:32:53.961Z,5.21
2022-11-13T00:34:19.472Z,5.21
2022-11-13T00:34:57.424Z,5.2
2022-11-13T00:35:59.181Z,5.2
2022-11-13T00:37:00.913Z,5.2
2022-11-13T00:38:02.638Z,5.19
2022-11-13T00:39:04.374Z,5.19
2022-11-13T00:40:06.085Z,5.18
2022-11-13T00:41:07.827Z,5.18
2022-11-13T00:42:09.568Z,5.19
2022-11-13T00:43:11.302Z,5.18
2022-11-13T00:44:13.042Z,5.19
2022-11-13T00:45:14.776Z,5.19
2022-11-13T00:46:16.508Z,5.19
2022-11-13T00:47:18.249Z,5.18
2022-11-13T00:48:19.955Z,5.18
2022-11-13T00:49:21.709Z,5.16
2022-11-13T00:50:23.427Z,5.16
2022-11-13T00:51:25.163Z,5.14
2022-11-13T00:52:26.894Z,5.13
2022-11-13T00:53:28.704Z,5.12
2022-11-13T00:54:30.375Z,5.11
2022-11-13T00:55:32.106Z,5.09
2022-11-13T00:56:33.838Z,5.06
2022-11-13T00:57:35.577Z,5.05
2022-11-13T00:58:37.317Z,5.03
2022-11-13T00:59:39.049Z,5.01
2022-11-13T01:00:40.770Z,4.99
2022-11-13T01:01:42.578Z,4.97
2022-11-13T01:02:44.244Z,4.94
2022-11-13T01:03:45.965Z,4.92
2022-11-13T01:04:47.711Z,4.9
2022-11-13T01:05:49.466Z,4.88
2022-11-13T01:06:51.277Z,4.85
2022-11-13T01:07:52.898Z,4.83
2022-11-13T01:08:54.662Z,4.8
2022-11-13T01:09:56.404Z,4.79
2022-11-13T01:10:58.121Z,4.77
2022-11-13T01:11:59.843Z,4.76
2022-11-13T01:13:01.563Z,4.73
2022-11-13T01:14:03.310Z,4.73
2022-11-13T01:15:05.062Z,4.71
2022-11-13T01:16:06.764Z,4.7
2022-11-13T01:17:08.509Z,4.68
2022-11-13T01:18:10.246Z,4.66
2022-11-13T01:19:11.993Z,4.65
2022-11-13T01:20:13.713Z,4.63
2022-11-13T01:21:15.444Z,4.62
2022-11-13T01:22:17.181Z,4.61
2022-11-13T01:23:18.912Z,4.59
2022-11-13T01:24:20.661Z,4.58
2022-11-13T01:25:22.394Z,4.57
2022-11-13T01:26:24.110Z,4.55
2022-11-13T01:27:25.860Z,4.52
2022-11-13T01:28:27.933Z,4.51
2022-11-13T01:29:30.389Z,4.49
2022-11-13T01:30:31.184Z,4.47
2022-11-13T01:31:32.784Z,4.45
2022-11-13T01:32:34.521Z,4.43
2022-11-13T01:33:36.240Z,4.42
2022-11-13T01:34:38.004Z,4.41
2022-11-13T01:35:39.706Z,4.38
2022-11-13T01:36:41.448Z,4.37
2022-11-13T01:37:43.180Z,4.35
2022-11-13T01:38:44.909Z,4.34
2022-11-13T01:39:46.661Z,4.34
2022-11-13T01:40:48.383Z,4.32
2022-11-13T01:41:50.133Z,4.32
2022-11-13T01:42:51.871Z,4.3
2022-11-13T01:43:53.582Z,4.3
2022-11-13T01:44:55.341Z,4.3
2022-11-13T01:45:57.060Z,4.29
2022-11-13T01:46:58.808Z,4.3
2022-11-13T01:48:00.530Z,4.29
2022-11-13T01:49:02.267Z,4.29
2022-11-13T01:50:04.072Z,4.29
2022-11-13T01:51:05.732Z,4.29
2022-11-13T01:52:07.466Z,4.29
2022-11-13T01:53:09.208Z,4.28
2022-11-13T01:54:10.939Z,4.29
2022-11-13T01:55:12.707Z,4.29
2022-11-13T01:56:14.381Z,4.28
2022-11-13T01:57:16.150Z,4.28
2022-11-13T01:58:17.877Z,4.28
2022-11-13T01:59:19.621Z,4.28
2022-11-13T02:00:21.328Z,4.28
2022-11-13T02:01:23.147Z,4.28
2022-11-13T02:02:24.815Z,4.29
2022-11-13T02:03:26.523Z,4.28
2022-11-13T02:04:28.280Z,4.28
2022-11-13T02:05:30.000Z,4.28
2022-11-13T02:06:31.745Z,4.29
2022-11-13T02:07:33.456Z,4.29
2022-11-13T02:08:35.208Z,4.29
2022-11-13T02:09:36.950Z,4.3
2022-11-13T02:10:38.676Z,4.3
2022-11-13T02:11:40.398Z,4.3
2022-11-13T02:12:42.133Z,4.3
2022-11-13T02:13:43.859Z,4.3
2022-11-13T02:14:45.621Z,4.31
2022-11-13T02:15:47.341Z,4.31
2022-11-13T02:16:49.059Z,4.32
2022-11-13T02:17:50.817Z,4.32
2022-11-13T02:18:52.533Z,4.31
2022-11-13T02:19:54.281Z,4.31
2022-11-13T02:20:55.999Z,4.31
2022-11-13T02:21:57.731Z,4.31
2022-11-13T02:22:59.477Z,4.32
2022-11-13T02:24:01.209Z,4.32
2022-11-13T02:25:02.942Z,4.32
2022-11-13T02:26:04.702Z,4.31
2022-11-13T02:27:06.398Z,4.31
2022-11-13T02:28:08.137Z,4.32
2022-11-13T02:29:09.885Z,4.31
2022-11-13T02:30:15.914Z,4.31
2022-11-13T02:31:13.346Z,4.3
2022-11-13T02:32:15.072Z,4.3
2022-11-13T02:33:16.809Z,4.29
2022-11-13T02:34:18.568Z,4.28
2022-11-13T02:35:20.284Z,4.28
2022-11-13T02:36:22.004Z,4.26
2022-11-13T02:37:23.731Z,4.25
2022-11-13T02:38:25.731Z,4.24
2022-11-13T02:39:27.233Z,4.24
2022-11-13T02:40:28.940Z,4.23
2022-11-13T02:41:30.684Z,4.22
2022-11-13T02:42:32.405Z,4.21
2022-11-13T02:43:34.149Z,4.21
2022-11-13T02:44:35.889Z,4.2
2022-11-13T02:45:37.607Z,4.2
2022-11-13T02:46:39.343Z,4.2
2022-11-13T02:47:41.096Z,4.19
2022-11-13T02:48:42.810Z,4.19
2022-11-13T02:49:44.562Z,4.18
2022-11-13T02:50:46.319Z,4.18
2022-11-13T02:51:48.040Z,4.18
2022-11-13T02:52:49.806Z,4.17
2022-11-13T02:53:51.552Z,4.15
2022-11-13T02:54:53.232Z,4.15
2022-11-13T02:55:54.940Z,4.15
2022-11-13T02:56:56.680Z,4.14
2022-11-13T02:57:58.427Z,4.13
2022-11-13T02:59:00.146Z,4.12
2022-11-13T03:00:01.896Z,4.1
2022-11-13T03:01:03.620Z,4.09
2022-11-13T03:02:05.386Z,4.08
2022-11-13T03:03:07.078Z,4.07
2022-11-13T03:04:08.813Z,4.05
2022-11-13T03:05:12.486Z,4.03
2022-11-13T03:06:12.290Z,4.01
2022-11-13T03:07:14.068Z,4
2022-11-13T03:08:15.746Z,3.98
2022-11-13T03:09:17.484Z,3.94
2022-11-13T03:10:19.231Z,3.92
2022-11-13T03:11:20.994Z,3.89
2022-11-13T03:12:22.711Z,3.86
2022-11-13T03:13:24.408Z,3.82
2022-11-13T03:14:26.163Z,3.79
2022-11-13T03:15:27.873Z,3.74
2022-11-13T03:16:29.611Z,3.69
2022-11-13T03:17:31.350Z,3.66
2022-11-13T03:18:33.081Z,3.6
2022-11-13T03:19:34.828Z,3.55
2022-11-13T03:20:36.535Z,3.51
2022-11-13T03:21:38.281Z,3.47
2022-11-13T03:22:40.003Z,3.43
2022-11-13T03:23:41.754Z,3.4
2022-11-13T03:24:43.501Z,3.38
2022-11-13T03:25:45.215Z,3.35
2022-11-13T03:26:46.949Z,3.32
2022-11-13T03:27:48.698Z,3.28
2022-11-13T03:28:50.425Z,3.26
2022-11-13T03:29:52.166Z,3.24
2022-11-13T03:30:53.897Z,3.22
2022-11-13T03:31:55.647Z,3.18
2022-11-13T03:32:57.359Z,3.16
2022-11-13T03:33:59.085Z,3.13
2022-11-13T03:35:00.843Z,3.11
2022-11-13T03:36:02.552Z,3.08
2022-11-13T03:37:04.305Z,3.06
2022-11-13T03:38:06.025Z,3.04
2022-11-13T03:39:07.753Z,3.02
2022-11-13T03:40:09.509Z,3
2022-11-13T03:41:11.230Z,2.97
2022-11-13T03:42:12.953Z,2.96
2022-11-13T03:43:14.707Z,2.94
2022-11-13T03:44:16.419Z,2.92
2022-11-13T03:45:18.146Z,2.91
2022-11-13T03:46:19.877Z,2.89
2022-11-13T03:47:21.611Z,2.86
2022-11-13T03:48:23.374Z,2.84
2022-11-13T03:49:25.101Z,2.81
2022-11-13T03:50:26.831Z,2.79
2022-11-13T03:51:28.554Z,2.75
2022-11-13T03:52:30.297Z,2.73
2022-11-13T03:53:32.023Z,2.71
2022-11-13T03:54:33.766Z,2.67
2022-11-13T03:55:35.473Z,2.64
2022-11-13T03:56:37.213Z,2.6
2022-11-13T03:57:38.947Z,2.57
2022-11-13T03:58:41.536Z,2.55
2022-11-13T03:59:42.436Z,2.52
2022-11-13T04:00:44.146Z,2.47
2022-11-13T04:01:45.932Z,2.44
2022-11-13T04:02:47.618Z,2.39
2022-11-13T04:03:49.370Z,2.36
2022-11-13T04:04:51.094Z,2.32
2022-11-13T04:05:52.824Z,2.28
2022-11-13T04:06:54.682Z,2.26
2022-11-13T04:07:56.297Z,2.21
2022-11-13T04:08:58.026Z,2.19
2022-11-13T04:09:59.833Z,2.14
2022-11-13T04:11:01.487Z,2.11
2022-11-13T04:12:03.233Z,2.08
2022-11-13T04:13:04.982Z,2.04
2022-11-13T04:14:06.684Z,2
2022-11-13T04:15:08.448Z,1.97
2022-11-13T04:16:10.150Z,1.94
2022-11-13T04:17:11.885Z,1.91
2022-11-13T04:18:13.617Z,1.87
2022-11-13T04:19:15.361Z,1.84
2022-11-13T04:20:17.112Z,1.81
2022-11-13T04:21:18.831Z,1.77
2022-11-13T04:22:20.563Z,1.73
2022-11-13T04:23:22.297Z,1.7
2022-11-13T04:24:24.039Z,1.67
2022-11-13T04:25:25.761Z,1.64
2022-11-13T04:26:27.499Z,1.6
2022-11-13T04:27:29.235Z,1.57
2022-11-13T04:28:31.370Z,1.55
2022-11-13T04:29:32.707Z,1.52
2022-11-13T04:30:34.426Z,1.5
2022-11-13T04:31:36.150Z,1.48
2022-11-13T04:32:37.877Z,1.47
2022-11-13T04:33:39.632Z,1.46
2022-11-13T04:34:41.385Z,1.44
2022-11-13T04:35:43.093Z,1.43
2022-11-13T04:36:44.834Z,1.42
2022-11-13T04:37:46.559Z,1.4
2022-11-13T04:38:48.308Z,1.4
2022-11-13T04:39:50.032Z,1.39
2022-11-13T04:40:51.776Z,1.38
2022-11-13T04:41:55.519Z,1.36
2022-11-13T04:42:55.219Z,1.36
2022-11-13T04:43:56.973Z,1.35
2022-11-13T04:44:58.708Z,1.34
2022-11-13T04:46:00.427Z,1.33
2022-11-13T04:47:02.161Z,1.33
2022-11-13T04:48:03.900Z,1.33
2022-11-13T04:49:05.613Z,1.32
2022-11-13T04:50:07.407Z,1.33
2022-11-13T04:51:09.107Z,1.34
2022-11-13T04:52:10.833Z,1.34
2022-11-13T04:53:12.558Z,1.34
2022-11-13T04:54:14.285Z,1.36
2022-11-13T04:55:16.044Z,1.36
2022-11-13T04:56:17.758Z,1.35
2022-11-13T04:57:19.512Z,1.36
2022-11-13T04:58:21.220Z,1.35
2022-11-13T04:59:22.990Z,1.37
2022-11-13T05:00:24.709Z,1.38
2022-11-13T05:01:26.453Z,1.38
2022-11-13T05:02:28.163Z,1.39
2022-11-13T05:03:29.911Z,1.39
2022-11-13T05:04:31.651Z,1.4
2022-11-13T05:05:33.370Z,1.4
2022-11-13T05:06:35.090Z,1.39
2022-11-13T05:07:36.867Z,1.39
2022-11-13T05:08:38.568Z,1.38
2022-11-13T05:09:40.315Z,1.37
2022-11-13T05:10:42.051Z,1.36
2022-11-13T05:11:43.783Z,1.35
2022-11-13T05:12:45.514Z,1.34
2022-11-13T05:13:47.227Z,1.34
2022-11-13T05:14:48.985Z,1.32
2022-11-13T05:15:50.703Z,1.3
2022-11-13T05:16:52.444Z,1.29
2022-11-13T05:17:54.180Z,1.28
2022-11-13T05:18:55.899Z,1.25
2022-11-13T05:19:57.649Z,1.24
2022-11-13T05:20:59.371Z,1.23
2022-11-13T05:22:01.109Z,1.22
2022-11-13T05:23:02.834Z,1.22
2022-11-13T05:24:04.568Z,1.24
2022-11-13T05:25:06.312Z,1.24
2022-11-13T05:26:08.030Z,1.27
2022-11-13T05:27:14.304Z,1.29
2022-11-13T05:28:11.509Z,1.32
2022-11-13T05:29:13.231Z,1.35
2022-11-13T05:30:14.979Z,1.38
2022-11-13T05:31:16.694Z,1.41
2022-11-13T05:32:18.439Z,1.46
2022-11-13T05:33:20.173Z,1.49
2022-11-13T05:34:21.901Z,1.53
2022-11-13T05:35:23.634Z,1.58
2022-11-13T05:36:25.356Z,1.64
2022-11-13T05:37:27.090Z,1.69
2022-11-13T05:38:29.178Z,1.74
2022-11-13T05:39:30.571Z,1.79
2022-11-13T05:40:32.302Z,1.84
2022-11-13T05:41:34.044Z,1.89
2022-11-13T05:42:35.778Z,1.94
2022-11-13T05:43:37.502Z,1.97
2022-11-13T05:44:39.245Z,2.02
2022-11-13T05:45:40.953Z,2.05
2022-11-13T05:46:42.695Z,2.07
2022-11-13T05:47:44.444Z,2.09
2022-11-13T05:48:46.168Z,2.11
2022-11-13T05:49:47.995Z,2.12
2022-11-13T05:50:49.639Z,2.15
2022-11-13T05:51:51.346Z,2.15
2022-11-13T05:52:53.101Z,2.16
2022-11-13T05:53:54.847Z,2.16
2022-11-13T05:54:56.565Z,2.17
2022-11-13T05:55:58.301Z,2.16
2022-11-13T05:57:00.028Z,2.16
2022-11-13T05:58:01.764Z,2.15
2022-11-13T05:59:03.512Z,2.14
2022-11-13T06:00:05.243Z,2.15
2022-11-13T06:01:06.968Z,2.14
2022-11-13T06:02:08.798Z,2.14
2022-11-13T06:03:10.438Z,2.14
2022-11-13T06:04:12.158Z,2.15
2022-11-13T06:05:13.924Z,2.15
2022-11-13T06:06:15.642Z,2.16
2022-11-13T06:07:17.423Z,2.15
2022-11-13T06:08:19.085Z,2.16
2022-11-13T06:09:20.829Z,2.17
2022-11-13T06:10:22.563Z,2.16
2022-11-13T06:11:24.295Z,2.15
2022-11-13T06:12:26.040Z,2.16
2022-11-13T06:13:27.760Z,2.13
2022-11-13T06:14:29.491Z,2.14
2022-11-13T06:15:31.239Z,2.13
2022-11-13T06:16:32.960Z,2.13
2022-11-13T06:17:34.699Z,2.11
2022-11-13T06:18:36.415Z,2.1
2022-11-13T06:19:38.164Z,2.09
2022-11-13T06:20:39.881Z,2.07
2022-11-13T06:21:41.620Z,2.06
2022-11-13T06:22:43.362Z,2.04
2022-11-13T06:23:45.090Z,2.02
2022-11-13T06:24:46.844Z,1.99
2022-11-13T06:25:48.558Z,1.99
2022-11-13T06:26:50.289Z,1.97
2022-11-13T06:27:52.063Z,1.96
2022-11-13T06:28:53.776Z,1.93
2022-11-13T06:29:55.541Z,1.92
2022-11-13T06:30:57.224Z,1.9
2022-11-13T06:31:58.969Z,1.88
2022-11-13T06:33:00.689Z,1.86
2022-11-13T06:34:02.427Z,1.85
2022-11-13T06:35:04.164Z,1.83
2022-11-13T06:36:05.902Z,1.81
2022-11-13T06:37:07.631Z,1.8
2022-11-13T06:38:09.362Z,1.78
2022-11-13T06:39:11.163Z,1.77
2022-11-13T06:40:12.828Z,1.76
2022-11-13T06:41:14.544Z,1.75
2022-11-13T06:42:16.289Z,1.74
2022-11-13T06:43:18.010Z,1.74
2022-11-13T06:44:19.757Z,1.74
2022-11-13T06:45:21.479Z,1.74
2022-11-13T06:46:23.244Z,1.75
2022-11-13T06:47:24.948Z,1.74
2022-11-13T06:48:27.102Z,1.74
2022-11-13T06:49:28.441Z,1.73
2022-11-13T06:50:30.228Z,1.73
2022-11-13T06:51:31.889Z,1.71
2022-11-13T06:52:33.623Z,1.7
2022-11-13T06:53:35.362Z,1.69
2022-11-13T06:54:37.099Z,1.68
2022-11-13T06:55:38.824Z,1.67
2022-11-13T06:56:40.570Z,1.65
2022-11-13T06:57:42.289Z,1.64
2022-11-13T06:58:44.031Z,1.63
2022-11-13T06:59:45.769Z,1.61
2022-11-13T07:00:47.560Z,1.61
2022-11-13T07:01:49.211Z,1.61
2022-11-13T07:02:50.971Z,1.61
2022-11-13T07:03:52.681Z,1.61
2022-11-13T07:04:54.432Z,1.62
2022-11-13T07:05:56.179Z,1.64
2022-11-13T07:06:57.989Z,1.68
2022-11-13T07:07:59.641Z,1.74
2022-11-13T07:09:01.353Z,1.79
2022-11-13T07:10:03.096Z,1.98
2022-11-13T07:11:04.822Z,2.08
2022-11-13T07:12:06.544Z,2.16
2022-11-13T07:13:08.290Z,2.32
2022-11-13T07:14:10.031Z,2.41
2022-11-13T07:15:11.769Z,2.52
2022-11-13T07:16:16.950Z,2.65
2022-11-13T07:17:15.219Z,2.77
2022-11-13T07:18:24.438Z,2.9
2022-11-13T07:19:18.701Z,3.04
2022-11-13T07:20:20.438Z,3.12
2022-11-13T07:21:22.163Z,3.2
2022-11-13T07:22:23.890Z,3.3
2022-11-13T07:23:25.619Z,3.38
2022-11-13T07:24:27.369Z,3.44
2022-11-13T07:25:29.132Z,3.52
2022-11-13T07:26:30.839Z,3.57
2022-11-13T07:27:32.545Z,3.61
2022-11-13T07:28:34.293Z,3.63
2022-11-13T07:29:36.036Z,3.67
2022-11-13T07:30:37.765Z,3.72
2022-11-13T07:31:39.506Z,3.76
2022-11-13T07:32:41.225Z,3.79
2022-11-13T07:33:42.953Z,3.83
2022-11-13T07:34:44.684Z,3.88
2022-11-13T07:35:46.416Z,3.92
2022-11-13T07:36:48.159Z,3.96
2022-11-13T07:37:49.895Z,3.99
2022-11-13T07:38:51.636Z,4.03
2022-11-13T07:39:53.353Z,4.06
2022-11-13T07:40:55.090Z,4.09
2022-11-13T07:41:56.810Z,4.13
2022-11-13T07:42:58.548Z,4.15
2022-11-13T07:44:00.304Z,4.19
2022-11-13T07:45:02.058Z,4.21
2022-11-13T07:46:03.772Z,4.25
2022-11-13T07:47:05.500Z,4.29
2022-11-13T07:48:07.230Z,4.32
2022-11-13T07:49:08.951Z,4.36
2022-11-13T07:50:11.103Z,4.41
2022-11-13T07:51:12.543Z,4.44
2022-11-13T07:52:14.155Z,4.46
2022-11-13T07:53:15.927Z,4.51
2022-11-13T07:54:17.633Z,4.53
2022-11-13T07:55:19.370Z,4.57
2022-11-13T07:56:23.294Z,4.61
2022-11-13T07:57:22.820Z,4.6
2022-11-13T07:58:24.545Z,4.64
2022-11-13T07:59:26.286Z,4.67
2022-11-13T08:00:28.064Z,4.64
2022-11-13T08:01:29.766Z,4.68
2022-11-13T08:02:31.491Z,4.69
2022-11-13T08:03:33.208Z,4.7
2022-11-13T08:04:34.958Z,4.72
2022-11-13T08:05:36.704Z,4.74
2022-11-13T08:06:38.499Z,4.75
2022-11-13T08:07:40.148Z,4.77
2022-11-13T08:08:41.875Z,4.75
2022-11-13T08:09:43.617Z,4.8
2022-11-13T08:10:45.358Z,4.82
2022-11-13T08:11:47.097Z,4.86
2022-11-13T08:12:48.819Z,4.87
2022-11-13T08:13:50.550Z,4.9
2022-11-13T08:14:52.286Z,4.95
2022-11-13T08:15:54.047Z,4.96
2022-11-13T08:16:55.753Z,5.02
2022-11-13T08:17:57.489Z,5.07
2022-11-13T08:18:59.225Z,5.1
2022-11-13T08:20:00.970Z,5.15
2022-11-13T08:21:02.741Z,5.2
2022-11-13T08:22:04.643Z,5.25
2022-11-13T08:23:06.152Z,5.27
2022-11-13T08:24:07.886Z,5.34
2022-11-13T08:25:09.631Z,5.39
2022-11-13T08:26:11.358Z,5.44
2022-11-13T08:27:13.084Z,5.51
2022-11-13T08:28:14.823Z,5.56
2022-11-13T08:29:16.568Z,5.6
2022-11-13T08:30:18.290Z,5.66
2022-11-13T08:31:20.281Z,5.72
2022-11-13T08:32:21.880Z,5.75
2022-11-13T08:33:23.493Z,5.8
2022-11-13T08:34:25.228Z,5.87
2022-11-13T08:35:29.644Z,5.92
2022-11-13T08:36:28.689Z,5.99
2022-11-13T08:37:30.439Z,6.01
2022-11-13T08:38:32.407Z,6.05
2022-11-13T08:39:33.889Z,6.09
2022-11-13T08:40:35.638Z,6.05
2022-11-13T08:41:37.356Z,6.06
2022-11-13T08:42:39.093Z,6.04
2022-11-13T08:43:40.822Z,6.09
2022-11-13T08:44:42.555Z,6.07
2022-11-13T08:45:44.317Z,6.09
2022-11-13T08:46:46.020Z,6.12
2022-11-13T08:47:47.749Z,6.15
2022-11-13T08:48:49.504Z,6.17
2022-11-13T08:49:51.231Z,6.21
2022-11-13T08:50:52.966Z,6.26
2022-11-13T08:51:54.693Z,6.29
2022-11-13T08:52:56.428Z,6.34
2022-11-13T08:53:58.159Z,6.38
2022-11-13T08:54:59.897Z,6.42
2022-11-13T08:56:01.615Z,6.39
2022-11-13T08:57:05.791Z,6.42
2022-11-13T08:58:05.097Z,6.42
2022-11-13T08:59:06.819Z,6.42
2022-11-13T09:00:08.559Z,6.41
2022-11-13T09:01:10.293Z,6.38
2022-11-13T09:02:12.023Z,6.37
2022-11-13T09:03:13.766Z,6.37
2022-11-13T09:04:15.578Z,6.35
2022-11-13T09:05:17.258Z,6.33
2022-11-13T09:06:18.959Z,6.34
2022-11-13T09:07:26.051Z,6.33
2022-11-13T09:08:22.477Z,6.31
2022-11-13T09:09:24.161Z,6.3
2022-11-13T09:10:25.933Z,6.3
2022-11-13T09:11:27.620Z,6.28
2022-11-13T09:12:29.358Z,6.28
2022-11-13T09:13:31.092Z,6.26
2022-11-13T09:14:32.831Z,6.24
2022-11-13T09:15:34.574Z,6.25
2022-11-13T09:16:36.288Z,6.25
2022-11-13T09:17:38.016Z,6.24
2022-11-13T09:18:39.744Z,6.21
2022-11-13T09:19:41.482Z,6.21
2022-11-13T09:20:43.232Z,6.18
2022-11-13T09:21:44.963Z,6.19
2022-11-13T09:22:46.690Z,6.2
2022-11-13T09:23:48.422Z,6.2
2022-11-13T09:24:50.159Z,6.2
2022-11-13T09:25:51.902Z,6.21
2022-11-13T09:26:53.618Z,6.27
2022-11-13T09:27:55.353Z,6.32
2022-11-13T09:28:57.086Z,6.32
2022-11-13T09:29:58.817Z,6.36
2022-11-13T09:31:00.564Z,6.42
2022-11-13T09:32:02.275Z,6.48
2022-11-13T09:33:04.024Z,6.57
2022-11-13T09:34:05.747Z,6.58
2022-11-13T09:35:07.497Z,6.58
2022-11-13T09:36:09.219Z,6.6
2022-11-13T09:37:10.949Z,6.66
2022-11-13T09:38:12.683Z,6.7
2022-11-13T09:39:14.409Z,6.7
2022-11-13T09:40:16.160Z,6.7
2022-11-13T09:41:17.890Z,6.68
2022-11-13T09:42:19.615Z,6.68
2022-11-13T09:43:21.446Z,6.69
2022-11-13T09:44:23.077Z,6.7
2022-11-13T09:45:24.821Z,6.73
2022-11-13T09:46:26.544Z,6.74
2022-11-13T09:47:28.309Z,6.74
2022-11-13T09:48:30.433Z,6.75
2022-11-13T09:49:31.753Z,6.78
2022-11-13T09:50:33.483Z,6.8
2022-11-13T09:51:35.227Z,6.85
2022-11-13T09:52:36.951Z,6.92
2022-11-13T09:53:38.695Z,7.01
2022-11-13T09:54:40.434Z,7.14
2022-11-13T09:55:42.164Z,7.36
2022-11-13T09:56:43.898Z,7.5
2022-11-13T09:57:45.611Z,7.65
2022-11-13T09:58:47.349Z,7.7
2022-11-13T09:59:49.088Z,7.76
2022-11-13T10:00:50.845Z,7.85
2022-11-13T10:01:52.567Z,7.93
2022-11-13T10:02:54.297Z,8.01
2022-11-13T10:04:02.345Z,8.03
2022-11-13T10:04:57.765Z,8.1
2022-11-13T10:05:59.508Z,8.09
2022-11-13T10:07:01.437Z,8.13
2022-11-13T10:08:02.952Z,8.07
2022-11-13T10:09:04.688Z,8.13
2022-11-13T10:10:06.420Z,8.12
2022-11-13T10:11:08.147Z,8.15
2022-11-13T10:12:09.896Z,8.16
2022-11-13T10:13:11.624Z,8.2
2022-11-13T10:14:13.352Z,8.23
2022-11-13T10:15:15.113Z,8.27
2022-11-13T10:16:16.828Z,8.36
2022-11-13T10:17:18.555Z,8.45
2022-11-13T10:18:20.290Z,8.55
2022-11-13T10:19:22.124Z,8.66
2022-11-13T10:20:23.803Z,8.77
2022-11-13T10:21:25.495Z,8.98
2022-11-13T10:22:33.288Z,9.14
2022-11-13T10:23:29.288Z,9.36
2022-11-13T10:24:30.686Z,9.51
2022-11-13T10:25:32.440Z,9.69
2022-11-13T10:26:34.180Z,9.77
2022-11-13T10:27:35.956Z,9.9
2022-11-13T10:28:50.439Z,10.2
2022-11-13T10:29:40.748Z,10.34
2022-11-13T10:30:41.113Z,10.55
2022-11-13T10:31:42.820Z,10.73
2022-11-13T10:32:44.551Z,10.87
2022-11-13T10:33:46.295Z,10.96
2022-11-13T10:34:48.021Z,11.03
2022-11-13T10:35:49.754Z,11.11
2022-11-13T10:36:51.492Z,11.2
2022-11-13T10:37:53.217Z,11.22
2022-11-13T10:38:54.942Z,11.18
2022-11-13T10:39:56.690Z,11.2
2022-11-13T10:40:58.431Z,11.15
2022-11-13T10:42:00.157Z,11.03
2022-11-13T10:43:01.923Z,10.93
2022-11-13T10:44:03.613Z,10.83
2022-11-13T10:45:11.101Z,10.68
2022-11-13T10:46:07.099Z,10.55
2022-11-13T10:47:08.820Z,10.44
2022-11-13T10:48:10.557Z,10.33
2022-11-13T10:49:12.288Z,10.19
2022-11-13T10:50:14.027Z,10.13
2022-11-13T10:51:15.754Z,10.06
2022-11-13T10:52:17.496Z,10.02
2022-11-13T10:53:19.225Z,9.97
2022-11-13T10:54:20.959Z,9.87
2022-11-13T10:55:22.693Z,9.86
2022-11-13T10:56:24.422Z,9.84
2022-11-13T10:57:26.151Z,9.82
2022-11-13T10:58:28.119Z,9.78
2022-11-13T10:59:29.621Z,9.76
2022-11-13T11:00:31.375Z,9.72
2022-11-13T11:01:33.179Z,9.67
2022-11-13T11:02:34.830Z,9.62
2022-11-13T11:03:36.571Z,9.58
2022-11-13T11:04:38.298Z,9.55
2022-11-13T11:05:40.055Z,9.52
2022-11-13T11:07:17.890Z,9.49
2022-11-13T11:07:43.564Z,9.47
2022-11-13T11:08:45.225Z,9.45
2022-11-13T11:09:46.961Z,9.42
2022-11-13T11:10:48.703Z,9.41
2022-11-13T11:11:50.431Z,9.43
2022-11-13T11:12:52.165Z,9.47
2022-11-13T11:13:53.898Z,9.52
2022-11-13T11:14:55.634Z,9.57
2022-11-13T11:15:57.386Z,9.61
2022-11-13T11:16:59.219Z,9.66
2022-11-13T11:18:00.829Z,9.72
2022-11-13T11:19:02.552Z,9.77
2022-11-13T11:20:04.293Z,9.8
2022-11-13T11:21:06.035Z,9.8
2022-11-13T11:22:07.836Z,9.79
2022-11-13T11:23:09.489Z,9.79
2022-11-13T11:24:11.226Z,9.76
2022-11-13T11:25:12.964Z,9.73
2022-11-13T11:26:14.709Z,9.7
2022-11-13T11:27:16.420Z,9.68
2022-11-13T11:28:18.169Z,9.65
2022-11-13T11:29:19.905Z,9.63
2022-11-13T11:30:21.736Z,9.61
2022-11-13T11:31:23.356Z,9.58
2022-11-13T11:32:25.095Z,9.57
2022-11-13T11:33:26.824Z,9.55
2022-11-13T11:34:28.564Z,9.56
2022-11-13T11:35:30.300Z,9.54
2022-11-13T11:36:32.028Z,9.52
2022-11-13T11:37:33.750Z,9.5
2022-11-13T11:38:35.502Z,9.48
2022-11-13T11:39:37.222Z,9.45
2022-11-13T11:40:38.963Z,9.45
2022-11-13T11:41:40.776Z,9.43
2022-11-13T11:42:42.432Z,9.44
2022-11-13T11:43:44.164Z,9.48
2022-11-13T11:44:45.900Z,9.51
2022-11-13T11:45:47.645Z,9.57
2022-11-13T11:46:49.365Z,9.61
2022-11-13T11:47:51.120Z,9.66
2022-11-13T11:48:52.841Z,9.68
2022-11-13T11:49:54.567Z,9.7
2022-11-13T11:50:56.304Z,9.7
2022-11-13T11:51:58.038Z,9.69
2022-11-13T11:52:59.754Z,9.7
2022-11-13T11:54:01.734Z,9.69
2022-11-13T11:55:03.238Z,9.69
2022-11-13T11:56:04.969Z,9.67
2022-11-13T11:57:06.713Z,9.67
2022-11-13T11:58:08.435Z,9.66
2022-11-13T11:59:10.175Z,9.63
2022-11-13T12:00:11.898Z,9.62
2022-11-13T12:01:13.643Z,9.6
2022-11-13T12:02:15.383Z,9.58
2022-11-13T12:03:17.111Z,9.58
2022-11-13T12:04:18.844Z,9.57
2022-11-13T12:05:20.671Z,9.58
2022-11-13T12:06:22.277Z,9.58
2022-11-13T12:07:24.009Z,9.6
2022-11-13T12:08:25.754Z,9.62
2022-11-13T12:09:27.391Z,9.65
2022-11-13T12:10:29.136Z,9.66
2022-11-13T12:11:30.862Z,9.7
2022-11-13T12:12:32.601Z,9.73
2022-11-13T12:13:34.349Z,9.77
2022-11-13T12:14:36.147Z,9.81
2022-11-13T12:15:37.801Z,9.87
2022-11-13T12:16:39.532Z,9.92
2022-11-13T12:17:41.270Z,9.98
2022-11-13T12:18:43.013Z,10.04
2022-11-13T12:19:44.753Z,10.08
2022-11-13T12:20:46.471Z,10.11
2022-11-13T12:21:48.208Z,10.16
2022-11-13T12:22:49.949Z,10.19
2022-11-13T12:23:51.673Z,10.24
2022-11-13T12:24:53.406Z,10.27
2022-11-13T12:25:55.141Z,10.33
2022-11-13T12:26:56.881Z,10.39
2022-11-13T12:27:58.694Z,10.42
2022-11-13T12:29:00.357Z,10.47
2022-11-13T12:30:02.085Z,10.52
2022-11-13T12:31:03.849Z,10.57
2022-11-13T12:32:05.543Z,10.59
2022-11-13T12:33:07.282Z,10.62
2022-11-13T12:34:09.017Z,10.63
2022-11-13T12:35:10.757Z,10.64
2022-11-13T12:36:12.516Z,10.65
2022-11-13T12:37:14.225Z,10.66
2022-11-13T12:38:15.956Z,10.66
2022-11-13T12:39:17.692Z,10.67
2022-11-13T12:40:19.423Z,10.69
2022-11-13T12:41:21.162Z,10.71
2022-11-13T12:42:22.900Z,10.72
2022-11-13T12:43:24.638Z,10.74
2022-11-13T12:44:26.374Z,10.76
2022-11-13T12:45:28.093Z,10.8
2022-11-13T12:46:29.819Z,10.83
2022-11-13T12:47:31.561Z,10.86
2022-11-13T12:48:33.301Z,10.91
2022-11-13T12:49:35.041Z,10.93
2022-11-13T12:50:36.791Z,10.96
2022-11-13T12:51:38.490Z,11
2022-11-13T12:52:40.277Z,11.04
2022-11-13T12:53:41.978Z,11.08
2022-11-13T12:54:43.725Z,11.14
2022-11-13T12:55:45.449Z,11.18
2022-11-13T12:56:47.181Z,11.21
2022-11-13T12:57:48.918Z,11.25
2022-11-13T12:59:09.338Z,11.28
2022-11-13T12:59:52.381Z,11.32
2022-11-13T13:00:54.189Z,11.34
2022-11-13T13:01:55.867Z,11.36
2022-11-13T13:02:57.587Z,11.39
2022-11-13T13:03:59.324Z,11.42
2022-11-13T13:05:01.056Z,11.45
2022-11-13T13:06:02.796Z,11.48
2022-11-13T13:07:04.561Z,11.51
2022-11-13T13:08:06.271Z,11.54
2022-11-13T13:09:08.010Z,11.55
2022-11-13T13:10:09.777Z,11.59
2022-11-13T13:11:11.491Z,11.6
2022-11-13T13:12:13.188Z,11.62
2022-11-13T13:13:17.156Z,11.63
2022-11-13T13:14:16.655Z,11.65
2022-11-13T13:15:18.426Z,11.66
2022-11-13T13:16:20.136Z,11.68
2022-11-13T13:17:21.898Z,11.69
2022-11-13T13:18:23.602Z,11.69
2022-11-13T13:19:25.362Z,11.69
2022-11-13T13:20:27.097Z,11.69
2022-11-13T13:21:28.804Z,11.68
2022-11-13T13:22:30.565Z,11.69
2022-11-13T13:23:32.292Z,11.68
2022-11-13T13:24:34.012Z,11.69
2022-11-13T13:25:35.757Z,11.69
2022-11-13T13:26:37.493Z,11.68
2022-11-13T13:27:39.224Z,11.69
2022-11-13T13:28:40.969Z,11.69
2022-11-13T13:29:42.689Z,11.66
2022-11-13T13:30:44.430Z,11.65
2022-11-13T13:31:46.170Z,11.62
2022-11-13T13:32:47.880Z,11.62
2022-11-13T13:33:49.621Z,11.62
2022-11-13T13:34:51.355Z,11.61
2022-11-13T13:35:53.092Z,11.61
2022-11-13T13:36:54.830Z,11.59
2022-11-13T13:37:56.560Z,11.59
2022-11-13T13:38:58.294Z,11.56
2022-11-13T13:40:00.036Z,11.56
2022-11-13T13:41:01.784Z,11.55
2022-11-13T13:42:03.508Z,11.53